Terminal Aerodrome Forecast
Issued by NWS Twin Cities, MN

Home | Current Version | Previous Version | Text Only | Print | Product List | Glossary On
Versions: 1 2 3 4 5 6 7 8 9 10 11 12 13 14 15 16 17 18 19 20
000
FTUS43 KMPX 282100 AAA
TAFSTC
TAF AMD
KSTC 282110Z 2821/2918 10007KT P6SM BKN015 OVC035
     FM290100 13005KT P6SM OVC020
     FM291500 18008KT P6SM OVC020=

USA.gov is the U.S. government's official web portal to all federal, state and local government web resources and services.